sensor_id;sensor_type;location;lat;lon;timestamp;P1;durP1;ratioP1;P2;durP2;ratioP2
77828;SDS011;67019;51.034;3.728;2023-03-14T00:01:09;8.40;;;1.62;;
77828;SDS011;67019;51.034;3.728;2023-03-14T00:03:42;8.78;;;1.87;;
77828;SDS011;67019;51.034;3.728;2023-03-14T00:06:10;9.80;;;2.12;;
77828;SDS011;67019;51.034;3.728;2023-03-14T00:08:40;8.50;;;1.70;;
77828;SDS011;67019;51.034;3.728;2023-03-14T00:11:16;15.32;;;7.33;;
77828;SDS011;67019;51.034;3.728;2023-03-14T00:13:42;9.08;;;1.98;;
77828;SDS011;67019;51.034;3.728;2023-03-14T00:16:12;12.43;;;5.10;;
77828;SDS011;67019;51.034;3.728;2023-03-14T00:18:39;7.03;;;2.65;;
77828;SDS011;67019;51.034;3.728;2023-03-14T00:21:08;5.67;;;1.70;;
77828;SDS011;67019;51.034;3.728;2023-03-14T00:23:37;6.65;;;1.52;;
77828;SDS011;67019;51.034;3.728;2023-03-14T00:26:11;7.40;;;1.82;;
77828;SDS011;67019;51.034;3.728;2023-03-14T00:28:39;10.20;;;1.95;;
77828;SDS011;67019;51.034;3.728;2023-03-14T00:31:07;11.12;;;2.35;;
77828;SDS011;67019;51.034;3.728;2023-03-14T00:33:37;6.83;;;1.62;;
77828;SDS011;67019;51.034;3.728;2023-03-14T00:36:08;9.15;;;2.10;;
77828;SDS011;67019;51.034;3.728;2023-03-14T00:38:37;4.05;;;1.45;;
77828;SDS011;67019;51.034;3.728;2023-03-14T00:41:08;6.80;;;2.02;;
77828;SDS011;67019;51.034;3.728;2023-03-14T00:43:40;11.18;;;2.47;;
77828;SDS011;67019;51.034;3.728;2023-03-14T00:46:11;15.48;;;2.58;;
77828;SDS011;67019;51.034;3.728;2023-03-14T00:52:06;11.43;;;2.02;;
77828;SDS011;67019;51.034;3.728;2023-03-14T00:54:44;14.43;;;2.65;;
77828;SDS011;67019;51.034;3.728;2023-03-14T00:57:16;8.53;;;2.77;;
77828;SDS011;67019;51.034;3.728;2023-03-14T00:59:42;14.75;;;2.08;;
77828;SDS011;67019;51.034;3.728;2023-03-14T01:04:47;12.45;;;2.60;;
77828;SDS011;67019;51.034;3.728;2023-03-14T01:09:45;14.23;;;2.80;;
77828;SDS011;67019;51.034;3.728;2023-03-14T01:12:12;12.93;;;3.30;;
77828;SDS011;67019;51.034;3.728;2023-03-14T01:14:40;15.25;;;2.92;;
77828;SDS011;67019;51.034;3.728;2023-03-14T01:17:07;10.70;;;2.40;;
77828;SDS011;67019;51.034;3.728;2023-03-14T01:19:36;14.38;;;2.15;;
77828;SDS011;67019;51.034;3.728;2023-03-14T01:22:04;11.28;;;2.77;;
77828;SDS011;67019;51.034;3.728;2023-03-14T01:24:32;10.68;;;2.47;;
77828;SDS011;67019;51.034;3.728;2023-03-14T01:26:59;8.55;;;2.65;;
77828;SDS011;67019;51.034;3.728;2023-03-14T01:29:28;14.78;;;2.95;;
77828;SDS011;67019;51.034;3.728;2023-03-14T01:31:57;9.30;;;1.75;;
77828;SDS011;67019;51.034;3.728;2023-03-14T01:34:25;8.70;;;3.20;;
77828;SDS011;67019;51.034;3.728;2023-03-14T01:36:54;11.60;;;2.15;;
77828;SDS011;67019;51.034;3.728;2023-03-14T01:39:21;12.40;;;3.15;;
77828;SDS011;67019;51.034;3.728;2023-03-14T01:41:49;14.23;;;3.67;;
77828;SDS011;67019;51.034;3.728;2023-03-14T01:44:17;12.10;;;2.20;;
77828;SDS011;67019;51.034;3.728;2023-03-14T01:46:44;13.98;;;2.60;;
77828;SDS011;67019;51.034;3.728;2023-03-14T01:49:15;9.68;;;1.98;;
77828;SDS011;67019;51.034;3.728;2023-03-14T01:57:08;9.63;;;1.37;;
77828;SDS011;67019;51.034;3.728;2023-03-14T01:59:40;6.90;;;1.65;;
77828;SDS011;67019;51.034;3.728;2023-03-14T02:04:38;10.05;;;1.98;;
77828;SDS011;67019;51.034;3.728;2023-03-14T02:09:50;13.30;;;3.90;;
77828;SDS011;67019;51.034;3.728;2023-03-14T02:12:19;10.18;;;2.27;;
77828;SDS011;67019;51.034;3.728;2023-03-14T02:14:48;5.35;;;2.37;;
77828;SDS011;67019;51.034;3.728;2023-03-14T02:17:16;3.45;;;1.10;;
77828;SDS011;67019;51.034;3.728;2023-03-14T02:19:56;7.62;;;1.50;;
77828;SDS011;67019;51.034;3.728;2023-03-14T02:22:31;7.42;;;1.02;;
77828;SDS011;67019;51.034;3.728;2023-03-14T02:25:06;8.75;;;1.17;;
77828;SDS011;67019;51.034;3.728;2023-03-14T02:27:33;8.10;;;0.98;;
77828;SDS011;67019;51.034;3.728;2023-03-14T02:30:03;7.33;;;1.72;;
77828;SDS011;67019;51.034;3.728;2023-03-14T02:32:48;10.18;;;1.22;;
77828;SDS011;67019;51.034;3.728;2023-03-14T02:35:21;7.85;;;1.17;;
77828;SDS011;67019;51.034;3.728;2023-03-14T02:37:59;7.78;;;1.25;;
77828;SDS011;67019;51.034;3.728;2023-03-14T02:40:28;6.60;;;1.35;;
77828;SDS011;67019;51.034;3.728;2023-03-14T02:42:57;7.72;;;1.10;;
77828;SDS011;67019;51.034;3.728;2023-03-14T02:45:29;11.00;;;1.12;;
77828;SDS011;67019;51.034;3.728;2023-03-14T02:48:03;7.47;;;1.70;;
77828;SDS011;67019;51.034;3.728;2023-03-14T02:50:34;1.45;;;0.78;;
77828;SDS011;67019;51.034;3.728;2023-03-14T02:53:01;4.83;;;1.50;;
77828;SDS011;67019;51.034;3.728;2023-03-14T02:55:29;3.17;;;1.40;;
77828;SDS011;67019;51.034;3.728;2023-03-14T02:57:57;5.10;;;1.32;;
77828;SDS011;67019;51.034;3.728;2023-03-14T03:00:25;11.03;;;1.92;;
77828;SDS011;67019;51.034;3.728;2023-03-14T03:02:53;5.62;;;1.10;;
77828;SDS011;67019;51.034;3.728;2023-03-14T03:05:21;7.87;;;1.70;;
77828;SDS011;67019;51.034;3.728;2023-03-14T03:07:48;8.53;;;3.20;;
77828;SDS011;67019;51.034;3.728;2023-03-14T03:10:16;2.37;;;1.20;;
77828;SDS011;67019;51.034;3.728;2023-03-14T03:12:44;5.37;;;1.32;;
77828;SDS011;67019;51.034;3.728;2023-03-14T03:15:11;4.97;;;1.85;;
77828;SDS011;67019;51.034;3.728;2023-03-14T03:17:39;7.15;;;1.90;;
77828;SDS011;67019;51.034;3.728;2023-03-14T03:20:07;9.50;;;2.00;;
77828;SDS011;67019;51.034;3.728;2023-03-14T03:22:35;4.92;;;1.72;;
77828;SDS011;67019;51.034;3.728;2023-03-14T03:25:04;6.00;;;1.87;;
77828;SDS011;67019;51.034;3.728;2023-03-14T03:27:33;7.45;;;1.95;;
77828;SDS011;67019;51.034;3.728;2023-03-14T03:30:02;11.22;;;1.80;;
77828;SDS011;67019;51.034;3.728;2023-03-14T03:32:31;13.87;;;2.63;;
77828;SDS011;67019;51.034;3.728;2023-03-14T03:34:59;7.65;;;2.10;;
77828;SDS011;67019;51.034;3.728;2023-03-14T03:37:26;9.85;;;2.65;;
77828;SDS011;67019;51.034;3.728;2023-03-14T03:39:56;10.88;;;2.70;;
77828;SDS011;67019;51.034;3.728;2023-03-14T03:42:24;8.65;;;2.50;;
77828;SDS011;67019;51.034;3.728;2023-03-14T03:44:54;10.78;;;2.83;;
77828;SDS011;67019;51.034;3.728;2023-03-14T03:47:21;7.45;;;3.00;;
77828;SDS011;67019;51.034;3.728;2023-03-14T03:49:49;4.45;;;2.58;;
77828;SDS011;67019;51.034;3.728;2023-03-14T03:52:17;6.22;;;2.42;;
77828;SDS011;67019;51.034;3.728;2023-03-14T03:54:44;8.18;;;2.45;;
77828;SDS011;67019;51.034;3.728;2023-03-14T03:57:12;13.65;;;3.83;;
77828;SDS011;67019;51.034;3.728;2023-03-14T03:59:41;8.68;;;3.47;;
77828;SDS011;67019;51.034;3.728;2023-03-14T04:02:09;12.40;;;3.80;;
77828;SDS011;67019;51.034;3.728;2023-03-14T04:04:36;8.40;;;3.52;;
77828;SDS011;67019;51.034;3.728;2023-03-14T04:07:05;14.78;;;3.60;;
77828;SDS011;67019;51.034;3.728;2023-03-14T04:09:33;11.78;;;4.53;;
77828;SDS011;67019;51.034;3.728;2023-03-14T04:12:01;12.10;;;4.12;;
77828;SDS011;67019;51.034;3.728;2023-03-14T04:14:28;15.40;;;4.78;;
77828;SDS011;67019;51.034;3.728;2023-03-14T04:16:56;15.68;;;6.85;;
77828;SDS011;67019;51.034;3.728;2023-03-14T04:19:24;15.58;;;5.45;;
77828;SDS011;67019;51.034;3.728;2023-03-14T04:21:51;12.30;;;4.35;;
77828;SDS011;67019;51.034;3.728;2023-03-14T04:24:19;14.75;;;4.90;;
77828;SDS011;67019;51.034;3.728;2023-03-14T04:26:46;15.15;;;6.15;;
77828;SDS011;67019;51.034;3.728;2023-03-14T04:29:16;16.23;;;5.80;;
77828;SDS011;67019;51.034;3.728;2023-03-14T04:31:43;18.27;;;5.85;;
77828;SDS011;67019;51.034;3.728;2023-03-14T04:34:11;11.25;;;5.33;;
77828;SDS011;67019;51.034;3.728;2023-03-14T04:36:39;11.57;;;5.55;;
77828;SDS011;67019;51.034;3.728;2023-03-14T04:39:06;11.93;;;4.80;;
77828;SDS011;67019;51.034;3.728;2023-03-14T04:41:34;12.13;;;4.70;;
77828;SDS011;67019;51.034;3.728;2023-03-14T04:44:02;8.55;;;3.80;;
77828;SDS011;67019;51.034;3.728;2023-03-14T04:46:29;11.40;;;3.12;;
77828;SDS011;67019;51.034;3.728;2023-03-14T04:48:57;4.85;;;2.45;;
77828;SDS011;67019;51.034;3.728;2023-03-14T04:51:24;6.92;;;3.12;;
77828;SDS011;67019;51.034;3.728;2023-03-14T04:53:53;8.95;;;2.42;;
77828;SDS011;67019;51.034;3.728;2023-03-14T04:56:21;5.53;;;2.42;;
77828;SDS011;67019;51.034;3.728;2023-03-14T04:58:49;2.55;;;1.40;;
77828;SDS011;67019;51.034;3.728;2023-03-14T05:01:18;11.08;;;2.30;;
77828;SDS011;67019;51.034;3.728;2023-03-14T05:03:45;4.87;;;1.85;;
77828;SDS011;67019;51.034;3.728;2023-03-14T05:06:14;4.45;;;1.57;;
77828;SDS011;67019;51.034;3.728;2023-03-14T05:08:43;2.25;;;1.62;;
77828;SDS011;67019;51.034;3.728;2023-03-14T05:11:11;3.20;;;1.95;;
77828;SDS011;67019;51.034;3.728;2023-03-14T05:13:39;7.92;;;1.70;;
77828;SDS011;67019;51.034;3.728;2023-03-14T05:16:07;4.85;;;2.45;;
77828;SDS011;67019;51.034;3.728;2023-03-14T05:18:36;6.50;;;1.57;;
77828;SDS011;67019;51.034;3.728;2023-03-14T05:21:04;4.67;;;2.30;;
77828;SDS011;67019;51.034;3.728;2023-03-14T05:23:32;1.87;;;1.15;;
77828;SDS011;67019;51.034;3.728;2023-03-14T05:26:08;5.87;;;1.92;;
77828;SDS011;67019;51.034;3.728;2023-03-14T05:28:32;6.87;;;1.90;;
77828;SDS011;67019;51.034;3.728;2023-03-14T05:31:05;2.80;;;1.92;;
77828;SDS011;67019;51.034;3.728;2023-03-14T05:33:34;5.35;;;2.83;;
77828;SDS011;67019;51.034;3.728;2023-03-14T05:36:01;6.58;;;2.12;;
77828;SDS011;67019;51.034;3.728;2023-03-14T05:38:29;6.53;;;2.60;;
77828;SDS011;67019;51.034;3.728;2023-03-14T05:40:57;3.60;;;1.85;;
77828;SDS011;67019;51.034;3.728;2023-03-14T05:43:24;10.20;;;2.45;;
77828;SDS011;67019;51.034;3.728;2023-03-14T05:45:52;5.97;;;2.45;;
77828;SDS011;67019;51.034;3.728;2023-03-14T05:48:20;6.85;;;2.90;;
77828;SDS011;67019;51.034;3.728;2023-03-14T05:50:48;4.30;;;3.15;;
77828;SDS011;67019;51.034;3.728;2023-03-14T05:53:17;19.00;;;5.22;;
77828;SDS011;67019;51.034;3.728;2023-03-14T05:55:44;6.10;;;3.30;;
77828;SDS011;67019;51.034;3.728;2023-03-14T05:58:12;11.85;;;5.42;;
77828;SDS011;67019;51.034;3.728;2023-03-14T06:00:40;17.27;;;4.00;;
77828;SDS011;67019;51.034;3.728;2023-03-14T06:03:07;20.45;;;4.35;;
77828;SDS011;67019;51.034;3.728;2023-03-14T06:05:36;9.73;;;3.10;;
77828;SDS011;67019;51.034;3.728;2023-03-14T06:08:04;12.78;;;3.37;;
77828;SDS011;67019;51.034;3.728;2023-03-14T06:10:31;6.20;;;2.52;;
77828;SDS011;67019;51.034;3.728;2023-03-14T06:12:59;2.95;;;2.25;;
77828;SDS011;67019;51.034;3.728;2023-03-14T06:15:28;5.30;;;2.58;;
77828;SDS011;67019;51.034;3.728;2023-03-14T06:17:55;4.17;;;2.50;;
77828;SDS011;67019;51.034;3.728;2023-03-14T06:20:23;7.30;;;2.35;;
77828;SDS011;67019;51.034;3.728;2023-03-14T06:22:51;5.20;;;1.95;;
77828;SDS011;67019;51.034;3.728;2023-03-14T06:25:18;5.55;;;1.80;;
77828;SDS011;67019;51.034;3.728;2023-03-14T06:27:46;5.58;;;2.45;;
77828;SDS011;67019;51.034;3.728;2023-03-14T06:30:14;5.87;;;2.33;;
77828;SDS011;67019;51.034;3.728;2023-03-14T06:32:41;8.70;;;2.22;;
77828;SDS011;67019;51.034;3.728;2023-03-14T06:35:09;12.85;;;3.15;;
77828;SDS011;67019;51.034;3.728;2023-03-14T06:37:38;13.90;;;3.15;;
77828;SDS011;67019;51.034;3.728;2023-03-14T06:40:15;14.90;;;3.42;;
77828;SDS011;67019;51.034;3.728;2023-03-14T06:42:41;11.80;;;3.80;;
77828;SDS011;67019;51.034;3.728;2023-03-14T06:45:09;8.78;;;3.62;;
77828;SDS011;67019;51.034;3.728;2023-03-14T06:47:38;6.58;;;3.20;;
77828;SDS011;67019;51.034;3.728;2023-03-14T06:50:08;6.53;;;2.83;;
77828;SDS011;67019;51.034;3.728;2023-03-14T06:52:36;12.55;;;4.25;;
77828;SDS011;67019;51.034;3.728;2023-03-14T06:55:06;12.07;;;6.12;;
77828;SDS011;67019;51.034;3.728;2023-03-14T06:57:34;10.88;;;4.12;;
77828;SDS011;67019;51.034;3.728;2023-03-14T07:00:03;13.98;;;8.48;;
77828;SDS011;67019;51.034;3.728;2023-03-14T07:02:31;8.08;;;4.22;;
77828;SDS011;67019;51.034;3.728;2023-03-14T07:04:59;13.72;;;5.72;;
77828;SDS011;67019;51.034;3.728;2023-03-14T07:07:27;8.68;;;4.80;;
77828;SDS011;67019;51.034;3.728;2023-03-14T07:09:55;11.73;;;4.53;;
77828;SDS011;67019;51.034;3.728;2023-03-14T07:12:23;10.05;;;5.08;;
77828;SDS011;67019;51.034;3.728;2023-03-14T07:14:51;14.07;;;4.72;;
77828;SDS011;67019;51.034;3.728;2023-03-14T07:17:19;8.00;;;4.42;;
77828;SDS011;67019;51.034;3.728;2023-03-14T07:19:46;13.62;;;4.28;;
77828;SDS011;67019;51.034;3.728;2023-03-14T07:22:17;6.28;;;3.95;;
77828;SDS011;67019;51.034;3.728;2023-03-14T07:24:45;5.55;;;3.12;;
77828;SDS011;67019;51.034;3.728;2023-03-14T07:27:12;13.13;;;5.28;;
77828;SDS011;67019;51.034;3.728;2023-03-14T07:29:40;16.10;;;3.90;;
77828;SDS011;67019;51.034;3.728;2023-03-14T07:32:07;10.88;;;4.75;;
77828;SDS011;67019;51.034;3.728;2023-03-14T07:34:37;7.80;;;3.95;;
77828;SDS011;67019;51.034;3.728;2023-03-14T07:37:06;10.38;;;4.03;;
77828;SDS011;67019;51.034;3.728;2023-03-14T07:39:35;11.70;;;4.12;;
77828;SDS011;67019;51.034;3.728;2023-03-14T07:42:04;8.00;;;2.60;;
77828;SDS011;67019;51.034;3.728;2023-03-14T07:44:34;4.05;;;2.70;;
77828;SDS011;67019;51.034;3.728;2023-03-14T07:47:05;8.58;;;3.10;;
77828;SDS011;67019;51.034;3.728;2023-03-14T07:49:35;7.90;;;2.62;;
77828;SDS011;67019;51.034;3.728;2023-03-14T07:52:02;6.37;;;3.50;;
77828;SDS011;67019;51.034;3.728;2023-03-14T07:54:30;6.70;;;3.17;;
77828;SDS011;67019;51.034;3.728;2023-03-14T07:56:57;12.18;;;3.58;;
77828;SDS011;67019;51.034;3.728;2023-03-14T07:59:26;6.87;;;2.80;;
77828;SDS011;67019;51.034;3.728;2023-03-14T08:01:54;7.78;;;2.85;;
77828;SDS011;67019;51.034;3.728;2023-03-14T08:04:23;8.78;;;2.50;;
77828;SDS011;67019;51.034;3.728;2023-03-14T08:06:51;8.45;;;2.40;;
77828;SDS011;67019;51.034;3.728;2023-03-14T08:09:22;10.82;;;3.05;;
77828;SDS011;67019;51.034;3.728;2023-03-14T08:11:49;10.18;;;3.40;;
77828;SDS011;67019;51.034;3.728;2023-03-14T08:14:16;5.45;;;2.92;;
77828;SDS011;67019;51.034;3.728;2023-03-14T08:16:44;9.80;;;3.25;;
77828;SDS011;67019;51.034;3.728;2023-03-14T08:19:12;11.60;;;3.72;;
77828;SDS011;67019;51.034;3.728;2023-03-14T08:21:40;10.15;;;3.92;;
77828;SDS011;67019;51.034;3.728;2023-03-14T08:24:07;15.00;;;4.70;;
77828;SDS011;67019;51.034;3.728;2023-03-14T08:26:36;4.78;;;2.70;;
77828;SDS011;67019;51.034;3.728;2023-03-14T08:29:05;14.90;;;4.30;;
77828;SDS011;67019;51.034;3.728;2023-03-14T08:31:34;16.73;;;5.15;;
77828;SDS011;67019;51.034;3.728;2023-03-14T08:34:02;9.03;;;3.65;;
77828;SDS011;67019;51.034;3.728;2023-03-14T08:36:30;4.08;;;2.70;;
77828;SDS011;67019;51.034;3.728;2023-03-14T08:38:57;10.82;;;2.67;;
77828;SDS011;67019;51.034;3.728;2023-03-14T08:41:27;14.43;;;3.80;;
77828;SDS011;67019;51.034;3.728;2023-03-14T08:43:54;6.62;;;3.37;;
77828;SDS011;67019;51.034;3.728;2023-03-14T08:46:22;13.48;;;2.95;;
77828;SDS011;67019;51.034;3.728;2023-03-14T08:48:49;10.25;;;4.05;;
77828;SDS011;67019;51.034;3.728;2023-03-14T08:51:17;14.10;;;5.08;;
77828;SDS011;67019;51.034;3.728;2023-03-14T08:53:45;6.15;;;3.17;;
77828;SDS011;67019;51.034;3.728;2023-03-14T08:56:12;10.90;;;3.98;;
77828;SDS011;67019;51.034;3.728;2023-03-14T08:58:40;8.58;;;2.98;;
77828;SDS011;67019;51.034;3.728;2023-03-14T09:01:09;17.02;;;4.35;;
77828;SDS011;67019;51.034;3.728;2023-03-14T09:03:37;10.88;;;3.60;;
77828;SDS011;67019;51.034;3.728;2023-03-14T09:06:06;23.65;;;6.08;;
77828;SDS011;67019;51.034;3.728;2023-03-14T09:08:35;14.18;;;3.90;;
77828;SDS011;67019;51.034;3.728;2023-03-14T09:11:03;8.75;;;3.20;;
77828;SDS011;67019;51.034;3.728;2023-03-14T09:13:42;10.78;;;3.87;;
77828;SDS011;67019;51.034;3.728;2023-03-14T09:16:10;17.65;;;4.33;;
77828;SDS011;67019;51.034;3.728;2023-03-14T09:18:38;25.50;;;4.72;;
77828;SDS011;67019;51.034;3.728;2023-03-14T09:21:06;9.73;;;3.12;;
77828;SDS011;67019;51.034;3.728;2023-03-14T09:23:34;12.30;;;2.60;;
77828;SDS011;67019;51.034;3.728;2023-03-14T09:26:02;13.30;;;4.53;;
77828;SDS011;67019;51.034;3.728;2023-03-14T09:28:31;21.80;;;3.67;;
77828;SDS011;67019;51.034;3.728;2023-03-14T09:31:06;13.70;;;2.75;;
77828;SDS011;67019;51.034;3.728;2023-03-14T09:33:35;13.83;;;2.70;;
77828;SDS011;67019;51.034;3.728;2023-03-14T09:36:03;5.70;;;2.42;;
77828;SDS011;67019;51.034;3.728;2023-03-14T09:38:31;12.98;;;2.62;;
77828;SDS011;67019;51.034;3.728;2023-03-14T09:41:00;18.40;;;2.75;;
77828;SDS011;67019;51.034;3.728;2023-03-14T09:43:30;14.55;;;2.72;;
77828;SDS011;67019;51.034;3.728;2023-03-14T09:46:00;8.18;;;2.40;;
77828;SDS011;67019;51.034;3.728;2023-03-14T09:48:30;9.75;;;4.05;;
77828;SDS011;67019;51.034;3.728;2023-03-14T09:50:59;9.28;;;2.15;;
77828;SDS011;67019;51.034;3.728;2023-03-14T09:56:01;15.43;;;3.37;;
77828;SDS011;67019;51.034;3.728;2023-03-14T09:58:29;19.55;;;3.35;;
77828;SDS011;67019;51.034;3.728;2023-03-14T10:00:57;9.45;;;2.17;;
77828;SDS011;67019;51.034;3.728;2023-03-14T10:05:59;6.00;;;1.55;;
77828;SDS011;67019;51.034;3.728;2023-03-14T10:08:30;5.80;;;1.25;;
77828;SDS011;67019;51.034;3.728;2023-03-14T10:10:59;13.03;;;1.70;;
77828;SDS011;67019;51.034;3.728;2023-03-14T10:13:28;5.08;;;1.65;;
77828;SDS011;67019;51.034;3.728;2023-03-14T10:16:00;6.70;;;1.47;;
77828;SDS011;67019;51.034;3.728;2023-03-14T10:18:31;5.28;;;1.52;;
77828;SDS011;67019;51.034;3.728;2023-03-14T10:23:49;8.70;;;1.42;;
77828;SDS011;67019;51.034;3.728;2023-03-14T10:26:18;4.28;;;1.00;;
77828;SDS011;67019;51.034;3.728;2023-03-14T10:28:52;8.23;;;1.40;;
77828;SDS011;67019;51.034;3.728;2023-03-14T10:31:25;3.22;;;1.07;;
77828;SDS011;67019;51.034;3.728;2023-03-14T10:33:59;5.78;;;1.47;;
77828;SDS011;67019;51.034;3.728;2023-03-14T10:36:33;8.78;;;1.92;;
77828;SDS011;67019;51.034;3.728;2023-03-14T10:41:50;7.92;;;1.87;;
77828;SDS011;67019;51.034;3.728;2023-03-14T10:44:24;4.03;;;1.45;;
77828;SDS011;67019;51.034;3.728;2023-03-14T10:47:03;7.97;;;1.82;;
77828;SDS011;67019;51.034;3.728;2023-03-14T10:49:31;4.15;;;2.12;;
77828;SDS011;67019;51.034;3.728;2023-03-14T10:54:30;6.37;;;1.37;;
77828;SDS011;67019;51.034;3.728;2023-03-14T10:56:58;1.17;;;1.10;;
77828;SDS011;67019;51.034;3.728;2023-03-14T10:59:27;5.87;;;3.22;;
77828;SDS011;67019;51.034;3.728;2023-03-14T11:01:58;6.40;;;1.60;;
77828;SDS011;67019;51.034;3.728;2023-03-14T11:07:16;3.92;;;1.50;;
77828;SDS011;67019;51.034;3.728;2023-03-14T11:15:40;5.08;;;1.35;;
77828;SDS011;67019;51.034;3.728;2023-03-14T11:27:30;6.47;;;1.90;;
77828;SDS011;67019;51.034;3.728;2023-03-14T11:33:11;9.15;;;2.65;;
77828;SDS011;67019;51.034;3.728;2023-03-14T11:35:46;5.87;;;3.00;;
77828;SDS011;67019;51.034;3.728;2023-03-14T11:40:43;6.05;;;1.82;;
77828;SDS011;67019;51.034;3.728;2023-03-14T11:43:15;6.83;;;1.90;;
77828;SDS011;67019;51.034;3.728;2023-03-14T11:45:56;6.92;;;2.17;;
77828;SDS011;67019;51.034;3.728;2023-03-14T11:48:30;10.88;;;2.27;;
77828;SDS011;67019;51.034;3.728;2023-03-14T11:51:15;11.18;;;3.05;;
77828;SDS011;67019;51.034;3.728;2023-03-14T11:53:54;17.73;;;3.60;;
77828;SDS011;67019;51.034;3.728;2023-03-14T11:56:42;11.70;;;3.67;;
77828;SDS011;67019;51.034;3.728;2023-03-14T11:59:38;24.63;;;2.62;;
77828;SDS011;67019;51.034;3.728;2023-03-14T12:02:28;8.75;;;2.42;;
77828;SDS011;67019;51.034;3.728;2023-03-14T12:08:33;19.02;;;3.25;;
77828;SDS011;67019;51.034;3.728;2023-03-14T12:11:23;20.77;;;3.40;;
77828;SDS011;67019;51.034;3.728;2023-03-14T12:13:52;22.07;;;2.37;;
77828;SDS011;67019;51.034;3.728;2023-03-14T12:18:54;18.55;;;3.08;;
77828;SDS011;67019;51.034;3.728;2023-03-14T12:21:41;18.32;;;4.03;;
77828;SDS011;67019;51.034;3.728;2023-03-14T12:23:53;23.70;;;3.22;;
77828;SDS011;67019;51.034;3.728;2023-03-14T12:26:26;16.57;;;2.83;;
77828;SDS011;67019;51.034;3.728;2023-03-14T12:31:40;13.48;;;4.92;;
77828;SDS011;67019;51.034;3.728;2023-03-14T12:42:05;21.65;;;4.35;;
77828;SDS011;67019;51.034;3.728;2023-03-14T12:47:01;22.95;;;4.70;;
77828;SDS011;67019;51.034;3.728;2023-03-14T12:49:41;22.60;;;3.65;;
77828;SDS011;67019;51.034;3.728;2023-03-14T12:52:13;23.12;;;5.03;;
77828;SDS011;67019;51.034;3.728;2023-03-14T13:00:16;25.32;;;3.90;;
77828;SDS011;67019;51.034;3.728;2023-03-14T13:02:46;13.45;;;3.02;;
77828;SDS011;67019;51.034;3.728;2023-03-14T13:05:20;16.12;;;2.98;;
77828;SDS011;67019;51.034;3.728;2023-03-14T13:15:29;13.55;;;2.62;;
77828;SDS011;67019;51.034;3.728;2023-03-14T13:18:03;11.48;;;1.77;;
77828;SDS011;67019;51.034;3.728;2023-03-14T13:20:38;21.15;;;3.85;;
77828;SDS011;67019;51.034;3.728;2023-03-14T13:23:26;20.15;;;3.70;;
77828;SDS011;67019;51.034;3.728;2023-03-14T13:25:58;18.27;;;2.70;;
77828;SDS011;67019;51.034;3.728;2023-03-14T13:28:27;15.17;;;3.03;;
77828;SDS011;67019;51.034;3.728;2023-03-14T13:31:00;19.77;;;3.05;;
77828;SDS011;67019;51.034;3.728;2023-03-14T13:33:32;17.20;;;2.87;;
77828;SDS011;67019;51.034;3.728;2023-03-14T13:36:01;16.12;;;2.70;;
77828;SDS011;67019;51.034;3.728;2023-03-14T13:38:32;18.00;;;2.40;;
77828;SDS011;67019;51.034;3.728;2023-03-14T13:43:31;12.15;;;3.15;;
77828;SDS011;67019;51.034;3.728;2023-03-14T13:46:14;11.10;;;3.87;;
77828;SDS011;67019;51.034;3.728;2023-03-14T13:48:48;19.87;;;2.20;;
77828;SDS011;67019;51.034;3.728;2023-03-14T13:51:18;13.62;;;2.60;;
77828;SDS011;67019;51.034;3.728;2023-03-14T13:53:48;15.90;;;2.40;;
77828;SDS011;67019;51.034;3.728;2023-03-14T13:56:23;12.90;;;1.80;;
77828;SDS011;67019;51.034;3.728;2023-03-14T13:58:54;10.08;;;2.95;;
77828;SDS011;67019;51.034;3.728;2023-03-14T14:03:57;23.40;;;3.87;;
77828;SDS011;67019;51.034;3.728;2023-03-14T14:09:11;9.90;;;1.60;;
77828;SDS011;67019;51.034;3.728;2023-03-14T14:11:56;5.60;;;1.27;;
77828;SDS011;67019;51.034;3.728;2023-03-14T14:17:03;7.70;;;1.27;;
77828;SDS011;67019;51.034;3.728;2023-03-14T14:19:33;9.15;;;1.95;;
77828;SDS011;67019;51.034;3.728;2023-03-14T14:22:04;8.73;;;1.10;;
77828;SDS011;67019;51.034;3.728;2023-03-14T14:24:33;8.50;;;1.10;;
77828;SDS011;67019;51.034;3.728;2023-03-14T14:27:14;5.95;;;1.32;;
77828;SDS011;67019;51.034;3.728;2023-03-14T14:29:56;2.85;;;0.85;;
77828;SDS011;67019;51.034;3.728;2023-03-14T14:32:26;6.25;;;1.15;;
77828;SDS011;67019;51.034;3.728;2023-03-14T14:35:02;2.83;;;1.00;;
77828;SDS011;67019;51.034;3.728;2023-03-14T14:37:40;8.45;;;1.07;;
77828;SDS011;67019;51.034;3.728;2023-03-14T14:42:39;3.15;;;0.98;;
77828;SDS011;67019;51.034;3.728;2023-03-14T14:45:11;4.78;;;0.90;;
77828;SDS011;67019;51.034;3.728;2023-03-14T14:47:53;3.02;;;0.53;;
77828;SDS011;67019;51.034;3.728;2023-03-14T14:50:29;10.88;;;1.15;;
77828;SDS011;67019;51.034;3.728;2023-03-14T14:53:23;3.80;;;1.07;;
77828;SDS011;67019;51.034;3.728;2023-03-14T14:58:48;8.43;;;1.30;;
77828;SDS011;67019;51.034;3.728;2023-03-14T15:01:20;3.17;;;2.15;;
77828;SDS011;67019;51.034;3.728;2023-03-14T15:03:53;2.83;;;0.85;;
77828;SDS011;67019;51.034;3.728;2023-03-14T15:06:21;12.85;;;1.07;;
77828;SDS011;67019;51.034;3.728;2023-03-14T15:08:52;5.62;;;1.22;;
77828;SDS011;67019;51.034;3.728;2023-03-14T15:11:21;5.15;;;1.30;;
77828;SDS011;67019;51.034;3.728;2023-03-14T15:13:50;2.92;;;1.27;;
77828;SDS011;67019;51.034;3.728;2023-03-14T15:16:22;2.85;;;1.30;;
77828;SDS011;67019;51.034;3.728;2023-03-14T15:18:54;5.95;;;1.45;;
77828;SDS011;67019;51.034;3.728;2023-03-14T15:21:25;7.97;;;1.47;;
77828;SDS011;67019;51.034;3.728;2023-03-14T15:23:54;16.30;;;1.95;;
77828;SDS011;67019;51.034;3.728;2023-03-14T15:26:28;10.18;;;1.40;;
77828;SDS011;67019;51.034;3.728;2023-03-14T15:28:54;7.45;;;1.35;;
77828;SDS011;67019;51.034;3.728;2023-03-14T15:31:23;5.95;;;1.40;;
77828;SDS011;67019;51.034;3.728;2023-03-14T15:33:51;5.95;;;1.37;;
77828;SDS011;67019;51.034;3.728;2023-03-14T15:36:26;8.03;;;1.85;;
77828;SDS011;67019;51.034;3.728;2023-03-14T15:38:56;9.45;;;1.45;;
77828;SDS011;67019;51.034;3.728;2023-03-14T15:41:27;3.10;;;1.43;;
77828;SDS011;67019;51.034;3.728;2023-03-14T15:43:55;6.92;;;1.07;;
77828;SDS011;67019;51.034;3.728;2023-03-14T15:46:23;7.87;;;1.50;;
77828;SDS011;67019;51.034;3.728;2023-03-14T15:48:51;3.80;;;1.10;;
77828;SDS011;67019;51.034;3.728;2023-03-14T15:51:21;5.25;;;1.20;;
77828;SDS011;67019;51.034;3.728;2023-03-14T15:53:49;4.45;;;1.07;;
77828;SDS011;67019;51.034;3.728;2023-03-14T15:56:19;14.55;;;1.55;;
77828;SDS011;67019;51.034;3.728;2023-03-14T15:58:49;13.05;;;1.35;;
77828;SDS011;67019;51.034;3.728;2023-03-14T16:01:17;3.67;;;2.15;;
77828;SDS011;67019;51.034;3.728;2023-03-14T16:03:45;6.75;;;1.60;;
77828;SDS011;67019;51.034;3.728;2023-03-14T16:06:16;16.27;;;2.37;;
77828;SDS011;67019;51.034;3.728;2023-03-14T16:08:53;7.08;;;1.35;;
77828;SDS011;67019;51.034;3.728;2023-03-14T16:11:19;15.58;;;3.30;;
77828;SDS011;67019;51.034;3.728;2023-03-14T16:13:48;12.10;;;2.52;;
77828;SDS011;67019;51.034;3.728;2023-03-14T16:16:16;9.43;;;2.50;;
77828;SDS011;67019;51.034;3.728;2023-03-14T16:18:44;7.53;;;1.45;;
77828;SDS011;67019;51.034;3.728;2023-03-14T16:21:13;8.05;;;2.27;;
77828;SDS011;67019;51.034;3.728;2023-03-14T16:23:49;9.35;;;1.40;;
77828;SDS011;67019;51.034;3.728;2023-03-14T16:26:18;7.28;;;1.70;;
77828;SDS011;67019;51.034;3.728;2023-03-14T16:28:47;10.43;;;2.55;;
77828;SDS011;67019;51.034;3.728;2023-03-14T16:31:15;11.15;;;1.72;;
77828;SDS011;67019;51.034;3.728;2023-03-14T16:36:14;12.90;;;2.50;;
77828;SDS011;67019;51.034;3.728;2023-03-14T16:38:45;7.83;;;1.87;;
77828;SDS011;67019;51.034;3.728;2023-03-14T16:41:18;11.70;;;1.82;;
77828;SDS011;67019;51.034;3.728;2023-03-14T16:46:18;8.93;;;2.37;;